createdAt,value
2023-03-05T00:01:33.918Z,100663.08
2023-03-05T00:05:11.934Z,100658.33
2023-03-05T00:08:49.868Z,100654.21
2023-03-05T00:12:28.064Z,100648.91
2023-03-05T00:16:13.940Z,100641.96
2023-03-05T00:20:00.327Z,100642.15
2023-03-05T00:23:18.671Z,100638.41
2023-03-05T00:27:28.851Z,100634.52
2023-03-05T00:30:48.802Z,100637.26
2023-03-05T00:34:26.724Z,100628.01
2023-03-05T00:38:02.493Z,100619.30
2023-03-05T00:41:33.338Z,100615.71
2023-03-05T00:45:09.349Z,100611.38
2023-03-05T00:48:45.218Z,100606.48
2023-03-05T00:52:22.781Z,100595.61
2023-03-05T00:55:59.746Z,100593.19
2023-03-05T00:59:38.195Z,100588.56
2023-03-05T01:03:14.568Z,100583.65
2023-03-05T01:06:53.544Z,100578.73
2023-03-05T01:10:30.379Z,100572.04
2023-03-05T01:14:07.744Z,100567.80
2023-03-05T01:17:45.296Z,100565.00
2023-03-05T01:21:23.052Z,100559.54
2023-03-05T01:25:00.676Z,100550.09
2023-03-05T01:28:38.718Z,100549.55
2023-03-05T01:32:16.238Z,100542.45
2023-03-05T01:35:55.780Z,100539.23
2023-03-05T01:39:33.425Z,100538.28
2023-03-05T01:43:12.252Z,100526.13
2023-03-05T01:46:46.635Z,100528.00
2023-03-05T01:50:27.998Z,100516.38
2023-03-05T01:54:04.725Z,100511.77
2023-03-05T01:57:52.752Z,100510.15
2023-03-05T02:01:17.495Z,100507.58
2023-03-05T02:05:29.625Z,100502.15
2023-03-05T02:08:33.823Z,100495.83
2023-03-05T02:12:12.848Z,100488.97
2023-03-05T02:15:49.913Z,100487.48
2023-03-05T02:19:25.948Z,100482.53
2023-03-05T02:23:03.702Z,100481.20
2023-03-05T02:26:43.272Z,100480.64
2023-03-05T02:30:19.867Z,100477.63
2023-03-05T02:33:56.424Z,100476.20
2023-03-05T02:37:33.989Z,100469.44
2023-03-05T02:41:11.746Z,100468.95
2023-03-05T02:44:49.275Z,100469.09
2023-03-05T02:48:27.357Z,100471.61
2023-03-05T02:52:06.135Z,100464.13
2023-03-05T02:55:42.602Z,100465.66
2023-03-05T02:59:20.085Z,100467.17
2023-03-05T03:02:57.761Z,100465.41
2023-03-05T03:06:35.617Z,100463.05
2023-03-05T03:10:13.276Z,100459.16
2023-03-05T03:13:51.594Z,100459.17
2023-03-05T03:17:28.231Z,100452.58
2023-03-05T03:21:07.108Z,100446.06
2023-03-05T03:24:44.654Z,100446.95
2023-03-05T03:28:21.538Z,100442.99
2023-03-05T03:31:59.616Z,100438.96
2023-03-05T03:35:37.012Z,100434.65
2023-03-05T03:39:16.635Z,100429.09
2023-03-05T03:42:55.398Z,100427.43
2023-03-05T03:46:30.178Z,100426.43
2023-03-05T03:50:16.988Z,100430.66
2023-03-05T03:53:45.199Z,100411.48
2023-03-05T03:57:23.073Z,100396.61
2023-03-05T04:01:00.732Z,100393.61
2023-03-05T04:04:38.385Z,100392.64
2023-03-05T04:08:16.797Z,100391.65
2023-03-05T04:11:54.591Z,100386.81
2023-03-05T04:15:31.124Z,100382.84
2023-03-05T04:19:08.994Z,100382.87
2023-03-05T04:22:46.361Z,100379.93
2023-03-05T04:26:28.061Z,100372.52
2023-03-05T04:30:02.221Z,100367.86
2023-03-05T04:33:39.494Z,100366.44
2023-03-05T04:37:18.097Z,100364.55
2023-03-05T04:40:57.123Z,100364.13
2023-03-05T04:44:32.369Z,100362.56
2023-03-05T04:48:12.929Z,100362.05
2023-03-05T04:51:47.888Z,100354.36
2023-03-05T04:55:27.473Z,100355.13
2023-03-05T04:59:03.526Z,100355.51
2023-03-05T05:02:44.190Z,100355.59
2023-03-05T05:06:19.466Z,100348.69
2023-03-05T05:09:56.362Z,100353.60
2023-03-05T05:13:34.961Z,100354.53
2023-03-05T05:17:11.510Z,100347.60
2023-03-05T05:20:49.010Z,100348.60
2023-03-05T05:24:28.069Z,100345.67
2023-03-05T05:28:04.989Z,100339.91
2023-03-05T05:32:00.927Z,100337.79
2023-03-05T05:35:19.685Z,100334.16
2023-03-05T05:38:57.556Z,100333.05
2023-03-05T05:42:35.419Z,100333.19
2023-03-05T05:46:16.350Z,100330.36
2023-03-05T05:49:50.870Z,100322.68
2023-03-05T05:53:27.887Z,100319.45
2023-03-05T05:57:06.433Z,100314.33
2023-03-05T06:00:44.000Z,100316.40
2023-03-05T06:04:21.116Z,100310.77
2023-03-05T06:08:00.159Z,100307.95
2023-03-05T06:11:37.899Z,100316.02
2023-03-05T06:15:14.178Z,100315.30
2023-03-05T06:18:52.844Z,100314.05
2023-03-05T06:22:29.916Z,100313.64
2023-03-05T06:26:08.906Z,100312.98
2023-03-05T06:29:45.820Z,100309.87
2023-03-05T06:33:25.319Z,100311.92
2023-03-05T06:37:00.382Z,100312.54
2023-03-05T06:40:40.027Z,100313.55
2023-03-05T06:44:15.665Z,100312.64
2023-03-05T06:47:53.350Z,100314.13
2023-03-05T06:51:39.157Z,100316.38
2023-03-05T06:55:10.472Z,100315.67
2023-03-05T06:58:50.716Z,100314.73
2023-03-05T07:02:24.188Z,100314.86
2023-03-05T07:06:11.296Z,100309.67
2023-03-05T07:09:43.059Z,100312.09
2023-03-05T07:13:16.781Z,100313.24
2023-03-05T07:16:54.476Z,100311.30
2023-03-05T07:20:35.893Z,100308.64
2023-03-05T07:24:09.930Z,100312.39
2023-03-05T07:27:48.871Z,100310.98
2023-03-05T07:31:31.782Z,100313.52
2023-03-05T07:35:03.107Z,100315.54
2023-03-05T07:38:40.987Z,100312.36
2023-03-05T07:42:18.300Z,100306.94
2023-03-05T07:45:55.996Z,100310.02
2023-03-05T07:49:33.673Z,100307.57
2023-03-05T07:53:11.960Z,100303.17
2023-03-05T07:56:48.976Z,100301.23
2023-03-05T08:00:27.003Z,100304.39
2023-03-05T08:04:05.454Z,100310.84
2023-03-05T08:07:41.878Z,100311.92
2023-03-05T08:11:19.781Z,100317.54
2023-03-05T08:14:58.567Z,100316.47
2023-03-05T08:18:35.556Z,100311.52
2023-03-05T08:22:16.348Z,100312.66
2023-03-05T08:25:50.233Z,100314.17
2023-03-05T08:29:31.150Z,100314.51
2023-03-05T08:33:05.494Z,100316.14
2023-03-05T08:36:44.409Z,100308.65
2023-03-05T08:40:23.848Z,100303.97
2023-03-05T08:43:58.516Z,100302.61
2023-03-05T08:47:36.476Z,100301.36
2023-03-05T08:51:23.359Z,100299.84
2023-03-05T08:54:51.617Z,100302.32
2023-03-05T08:58:29.772Z,100305.21
2023-03-05T09:05:44.809Z,100303.30
2023-03-05T09:09:23.670Z,100302.98
2023-03-05T09:12:59.957Z,100302.85
2023-03-05T09:16:41.313Z,100308.64
2023-03-05T09:20:16.814Z,100306.52
2023-03-05T09:23:53.009Z,100307.60
2023-03-05T09:27:36.291Z,100309.55
2023-03-05T09:31:09.801Z,100315.45
2023-03-05T09:34:46.319Z,100315.80
2023-03-05T09:38:23.820Z,100320.67
2023-03-05T09:42:39.573Z,100315.61
2023-03-05T09:45:47.645Z,100318.87
2023-03-05T09:49:43.131Z,100315.00
2023-03-05T09:53:01.760Z,100313.17
2023-03-05T09:56:40.745Z,100315.67
2023-03-05T10:00:38.638Z,100315.12
2023-03-05T10:04:04.384Z,100311.53
2023-03-05T10:07:31.239Z,100312.10
2023-03-05T10:11:07.036Z,100313.45
2023-03-05T10:14:42.130Z,100312.92
2023-03-05T10:18:35.218Z,100311.89
2023-03-05T10:22:23.737Z,100304.77
2023-03-05T10:25:40.731Z,100311.36
2023-03-05T10:29:53.836Z,100311.11
2023-03-05T10:33:12.956Z,100318.01
2023-03-05T10:36:41.681Z,100311.22
2023-03-05T10:40:23.906Z,100311.49
2023-03-05T10:43:51.933Z,100313.75
2023-03-05T10:47:38.809Z,100310.50
2023-03-05T10:51:15.773Z,100310.94
2023-03-05T10:54:42.807Z,100312.09
2023-03-05T10:58:17.967Z,100308.39
2023-03-05T11:02:05.806Z,100306.23
2023-03-05T11:06:01.352Z,100301.92
2023-03-05T11:09:18.417Z,100301.48
2023-03-05T11:12:48.892Z,100299.87
2023-03-05T11:16:32.294Z,100305.27
2023-03-05T11:20:31.028Z,100299.64
2023-03-05T11:23:41.551Z,100302.03
2023-03-05T11:27:26.483Z,100302.13
2023-03-05T11:31:10.377Z,100299.56
2023-03-05T11:34:36.133Z,100296.06
2023-03-05T11:38:30.091Z,100294.22
2023-03-05T11:42:02.342Z,100287.31
2023-03-05T11:45:29.753Z,100282.64
2023-03-05T11:49:07.433Z,100284.11
2023-03-05T11:52:48.295Z,100285.62
2023-03-05T11:56:52.962Z,100286.32
2023-03-05T12:00:00.698Z,100283.64
2023-03-05T12:03:38.853Z,100279.13
2023-03-05T12:07:18.925Z,100281.44
2023-03-05T12:10:51.499Z,100278.11
2023-03-05T12:14:44.918Z,100277.69
2023-03-05T12:18:24.888Z,100273.45
2023-03-05T12:21:48.581Z,100275.30
2023-03-05T12:25:49.021Z,100269.61
2023-03-05T12:29:01.402Z,100265.92
2023-03-05T12:32:37.246Z,100265.55
2023-03-05T12:36:17.737Z,100266.05
2023-03-05T12:40:05.137Z,100255.41
2023-03-05T12:43:31.818Z,100260.92
2023-03-05T12:47:16.019Z,100258.98
2023-03-05T12:50:45.246Z,100255.67
2023-03-05T12:54:29.494Z,100251.98
2023-03-05T12:58:07.487Z,100256.48
2023-03-05T13:01:46.289Z,100250.16
2023-03-05T13:05:39.810Z,100249.61
2023-03-05T13:09:03.755Z,100244.56
2023-03-05T13:12:32.473Z,100245.36
2023-03-05T13:16:29.797Z,100244.67
2023-03-05T13:19:46.879Z,100242.59
2023-03-05T13:23:26.833Z,100236.61
2023-03-05T13:27:02.093Z,100235.46
2023-03-05T13:30:44.391Z,100232.96
2023-03-05T13:34:17.669Z,100232.17
2023-03-05T13:37:55.278Z,100229.27
2023-03-05T13:41:32.870Z,100229.27
2023-03-05T13:45:30.830Z,100228.20
2023-03-05T13:48:49.265Z,100227.48
2023-03-05T13:52:39.280Z,100224.19
2023-03-05T13:56:07.555Z,100226.91
2023-03-05T13:59:42.553Z,100220.28
2023-03-05T14:03:27.227Z,100221.92
2023-03-05T14:07:03.988Z,100218.03
2023-03-05T14:10:37.815Z,100220.28
2023-03-05T14:14:19.189Z,100217.36
2023-03-05T14:17:50.267Z,100220.46
2023-03-05T14:21:44.890Z,100218.88
2023-03-05T14:25:07.116Z,100220.30
2023-03-05T14:28:42.789Z,100217.45
2023-03-05T14:32:33.167Z,100214.57
2023-03-05T14:36:01.282Z,100218.44
2023-03-05T14:39:57.514Z,100218.36
2023-03-05T14:43:15.595Z,100216.07
2023-03-05T14:46:51.682Z,100216.33
2023-03-05T14:50:35.013Z,100216.42
2023-03-05T14:54:06.494Z,100214.23
2023-03-05T14:57:44.675Z,100213.48
2023-03-05T15:01:21.737Z,100208.98
2023-03-05T15:04:59.238Z,100212.95
2023-03-05T15:08:37.332Z,100215.35
2023-03-05T15:12:16.522Z,100213.28
2023-03-05T15:15:55.553Z,100210.39
2023-03-05T15:19:30.075Z,100205.86
2023-03-05T15:23:08.152Z,100208.77
2023-03-05T15:26:45.191Z,100204.05
2023-03-05T15:30:47.346Z,100202.27
2023-03-05T15:34:00.985Z,100197.19
2023-03-05T15:37:42.867Z,100196.88
2023-03-05T15:41:17.791Z,100193.17
2023-03-05T15:44:53.676Z,100190.02
2023-03-05T15:48:31.582Z,100192.64
2023-03-05T15:52:10.106Z,100188.34
2023-03-05T15:56:06.140Z,100187.70
2023-03-05T15:59:26.808Z,100187.42
2023-03-05T16:03:04.438Z,100185.46
2023-03-05T16:11:04.905Z,100182.45
2023-03-05T16:14:34.096Z,100178.95
2023-03-05T16:19:12.375Z,100174.12
2023-03-05T16:33:57.465Z,100180.36
2023-03-05T16:38:16.759Z,100183.15
2023-03-05T16:41:37.370Z,100184.45
2023-03-05T16:45:12.653Z,100186.48
2023-03-05T16:48:54.185Z,100181.98
2023-03-05T17:07:09.822Z,100178.61
2023-03-05T17:10:46.410Z,100182.29
2023-03-05T17:14:03.934Z,100182.27
2023-03-05T17:38:33.834Z,100172.13
2023-03-05T17:42:46.021Z,100172.57
2023-03-05T17:46:28.053Z,100170.30
2023-03-05T17:50:13.564Z,100168.69
2023-03-05T18:04:50.111Z,100166.39
2023-03-05T18:33:59.988Z,100164.48
2023-03-05T19:02:52.752Z,100152.42
2023-03-05T19:06:04.851Z,100150.95
2023-03-05T19:20:18.046Z,100152.54
2023-03-05T19:23:43.250Z,100151.95
2023-03-05T19:38:24.800Z,100135.27
2023-03-05T19:41:52.327Z,100139.13
2023-03-05T19:55:45.509Z,100130.80
2023-03-05T19:58:49.103Z,100124.58
2023-03-05T20:02:24.153Z,100121.98
2023-03-05T20:06:01.654Z,100123.91
2023-03-05T20:09:39.675Z,100119.90
2023-03-05T20:13:16.941Z,100120.13
2023-03-05T20:16:54.664Z,100117.28
2023-03-05T20:20:33.136Z,100110.48
2023-03-05T20:24:17.600Z,100110.77
2023-03-05T20:27:47.925Z,100109.35
2023-03-05T20:31:29.336Z,100107.94
2023-03-05T20:35:21.803Z,100101.76
2023-03-05T20:39:40.818Z,100097.15
2023-03-05T20:43:48.099Z,100094.20
2023-03-05T20:47:50.157Z,100092.46
2023-03-05T20:51:46.392Z,100087.15
2023-03-05T20:59:46.412Z,100083.33
2023-03-05T21:03:18.144Z,100080.58
2023-03-05T21:11:25.838Z,100068.88
2023-03-05T21:25:50.908Z,100074.66
2023-03-05T21:29:02.093Z,100067.37
2023-03-05T21:43:26.673Z,100058.70
2023-03-05T21:57:50.643Z,100045.80
2023-03-05T22:15:35.382Z,100030.45
2023-03-05T22:19:34.583Z,100025.70
2023-03-05T22:22:49.290Z,100017.31
2023-03-05T22:37:13.794Z,100002.08
2023-03-05T22:40:30.446Z,100005.27
2023-03-05T22:44:03.575Z,99998.28
2023-03-05T22:47:31.527Z,99997.00
2023-03-05T22:51:10.094Z,99997.77
2023-03-05T22:55:33.254Z,99999.08
2023-03-05T22:59:21.893Z,99999.20
2023-03-05T23:02:55.087Z,99998.05
2023-03-05T23:07:00.353Z,99994.24
2023-03-05T23:10:54.156Z,99988.34
2023-03-05T23:14:30.349Z,99989.20
2023-03-05T23:18:00.025Z,99988.84
2023-03-05T23:22:22.512Z,99986.29
2023-03-05T23:29:48.382Z,99986.30
2023-03-05T23:44:09.464Z,99987.02
2023-03-05T23:47:13.494Z,99987.13
